createdAt,value
2019-03-17T00:00:05.217Z,30.23
2019-03-17T00:02:41.635Z,30.23
2019-03-17T00:05:16.368Z,30.20
2019-03-17T00:07:51.152Z,29.85
2019-03-17T00:10:25.875Z,30.15
2019-03-17T00:13:00.717Z,30.17
2019-03-17T00:15:35.472Z,30.10
2019-03-17T00:18:10.208Z,30.23
2019-03-17T00:20:44.960Z,30.03
2019-03-17T00:23:19.712Z,30.25
2019-03-17T00:25:54.640Z,30.12
2019-03-17T00:28:29.382Z,30.48
2019-03-17T00:31:04.355Z,31.10
2019-03-17T00:33:39.180Z,30.60
2019-03-17T00:36:14.003Z,30.23
2019-03-17T00:38:48.880Z,30.17
2019-03-17T00:41:23.704Z,30.10
2019-03-17T00:43:58.448Z,31.95
2019-03-17T00:46:33.259Z,30.17
2019-03-17T00:49:07.975Z,30.17
2019-03-17T00:51:42.719Z,30.50
2019-03-17T00:54:17.438Z,30.57
2019-03-17T00:56:52.183Z,30.07
2019-03-17T00:59:26.899Z,30.30
2019-03-17T01:02:01.663Z,30.48
2019-03-17T01:04:36.375Z,30.48
2019-03-17T01:07:11.181Z,30.10
2019-03-17T01:09:45.891Z,29.80
2019-03-17T01:12:21.592Z,30.15
2019-03-17T01:14:56.336Z,30.70
2019-03-17T01:17:31.078Z,29.93
2019-03-17T01:20:07.091Z,30.16
2019-03-17T01:22:41.843Z,30.92
2019-03-17T01:25:16.579Z,30.87
2019-03-17T01:27:51.384Z,30.37
2019-03-17T01:30:26.099Z,30.17
2019-03-17T01:33:00.903Z,30.65
2019-03-17T01:35:35.687Z,31.10
2019-03-17T01:38:10.426Z,30.25
2019-03-17T01:40:45.214Z,30.47
2019-03-17T01:43:20.001Z,30.23
2019-03-17T01:45:54.720Z,30.23
2019-03-17T01:48:29.460Z,30.07
2019-03-17T01:51:04.251Z,31.07
2019-03-17T01:53:39.088Z,31.65
2019-03-17T01:56:13.875Z,31.77
2019-03-17T01:58:48.606Z,30.83
2019-03-17T02:01:24.401Z,30.32
2019-03-17T02:03:59.216Z,30.62
2019-03-17T02:06:33.936Z,30.17
2019-03-17T02:09:09.121Z,30.20
2019-03-17T02:11:44.938Z,30.40
2019-03-17T02:14:19.827Z,30.25
2019-03-17T02:16:54.551Z,29.85
2019-03-17T02:19:29.288Z,30.30
2019-03-17T02:22:04.136Z,30.23
2019-03-17T02:24:38.876Z,31.03
2019-03-17T02:27:13.587Z,30.45
2019-03-17T02:29:48.323Z,30.47
2019-03-17T02:32:23.076Z,30.80
2019-03-17T02:34:57.807Z,30.60
2019-03-17T02:37:32.533Z,30.15
2019-03-17T02:40:07.438Z,30.33
2019-03-17T02:42:42.176Z,30.77
2019-03-17T02:45:16.899Z,30.43
2019-03-17T02:47:51.633Z,30.50
2019-03-17T02:50:26.365Z,30.30
2019-03-17T02:53:01.197Z,30.57
2019-03-17T02:55:35.928Z,30.85
2019-03-17T02:58:10.651Z,30.77
2019-03-17T03:00:45.456Z,31.00
2019-03-17T03:03:20.194Z,31.17
2019-03-17T03:05:55.730Z,31.65
2019-03-17T03:08:30.742Z,31.17
2019-03-17T03:11:06.608Z,30.50
2019-03-17T03:13:41.368Z,30.90
2019-03-17T03:16:16.084Z,30.70
2019-03-17T03:18:50.949Z,31.90
2019-03-17T03:21:25.791Z,31.07
2019-03-17T03:24:01.521Z,31.07
2019-03-17T03:26:36.274Z,30.67
2019-03-17T03:29:11.056Z,31.07
2019-03-17T03:31:45.814Z,31.40
2019-03-17T03:34:20.590Z,32.90
2019-03-17T03:36:55.414Z,30.07
2019-03-17T03:39:30.333Z,30.40
2019-03-17T03:42:05.232Z,30.47
2019-03-17T03:44:39.996Z,30.40
2019-03-17T03:47:15.976Z,29.97
2019-03-17T03:49:50.735Z,30.68
2019-03-17T03:52:25.580Z,30.27
2019-03-17T03:55:00.473Z,30.63
2019-03-17T03:57:35.346Z,30.23
2019-03-17T04:00:10.564Z,30.37
2019-03-17T04:02:45.474Z,31.05
2019-03-17T04:05:20.362Z,30.63
2019-03-17T04:07:55.167Z,30.20
2019-03-17T04:10:29.933Z,30.47
2019-03-17T04:13:04.864Z,30.47
2019-03-17T04:15:39.804Z,30.23
2019-03-17T04:18:14.641Z,30.25
2019-03-17T04:20:49.492Z,30.60
2019-03-17T04:23:24.384Z,30.50
2019-03-17T04:25:59.216Z,30.33
2019-03-17T04:28:33.977Z,30.50
2019-03-17T04:31:08.836Z,31.00
2019-03-17T04:33:43.582Z,30.47
2019-03-17T04:36:18.344Z,30.50
2019-03-17T04:38:53.123Z,30.10
2019-03-17T04:41:27.942Z,30.30
2019-03-17T04:44:02.706Z,30.23
2019-03-17T04:46:37.467Z,30.82
2019-03-17T04:49:12.213Z,30.63
2019-03-17T04:51:47.060Z,31.03
2019-03-17T04:54:21.896Z,30.83
2019-03-17T04:56:56.663Z,30.47
2019-03-17T04:59:32.378Z,30.33
2019-03-17T05:02:07.218Z,30.47
2019-03-17T05:04:41.969Z,30.90
2019-03-17T05:07:16.734Z,30.50
2019-03-17T05:09:51.562Z,30.30
2019-03-17T05:12:26.331Z,30.00
2019-03-17T05:15:01.100Z,30.47
2019-03-17T05:17:35.877Z,30.23
2019-03-17T05:20:11.006Z,30.30
2019-03-17T05:22:45.764Z,31.03
2019-03-17T05:25:20.623Z,30.40
2019-03-17T05:27:55.431Z,30.87
2019-03-17T05:30:31.293Z,30.57
2019-03-17T05:33:06.122Z,30.53
2019-03-17T05:35:40.955Z,30.40
2019-03-17T05:38:15.710Z,30.10
2019-03-17T05:40:50.484Z,30.27
2019-03-17T05:43:25.240Z,29.93
2019-03-17T05:46:00.101Z,30.43
2019-03-17T05:48:34.920Z,30.60
2019-03-17T05:51:09.711Z,31.13
2019-03-17T05:53:44.467Z,30.83
2019-03-17T05:56:19.380Z,30.57
2019-03-17T05:58:54.285Z,30.37
2019-03-17T06:01:30.036Z,30.67
2019-03-17T06:04:04.947Z,30.77
2019-03-17T06:06:39.774Z,29.83
2019-03-17T06:09:14.600Z,30.17
2019-03-17T06:11:49.358Z,30.23
2019-03-17T06:14:24.138Z,29.97
2019-03-17T06:17:00.107Z,30.07
2019-03-17T06:19:34.936Z,30.63
2019-03-17T06:22:09.744Z,30.63
2019-03-17T06:24:44.515Z,30.87
2019-03-17T06:27:19.272Z,30.63
2019-03-17T06:29:54.052Z,31.90
2019-03-17T06:32:28.810Z,31.77
2019-03-17T06:35:06.083Z,30.87
2019-03-17T06:37:40.976Z,32.10
2019-03-17T06:40:15.819Z,31.47
2019-03-17T06:42:50.562Z,32.17
2019-03-17T06:45:25.415Z,32.00
2019-03-17T06:48:00.179Z,30.47
2019-03-17T06:50:34.947Z,31.10
2019-03-17T06:53:09.711Z,30.77
2019-03-17T06:55:44.621Z,31.17
2019-03-17T06:58:19.382Z,31.07
2019-03-17T07:00:54.237Z,31.57
2019-03-17T07:03:29.239Z,31.13
2019-03-17T07:06:04.136Z,30.43
2019-03-17T07:08:38.958Z,30.57
2019-03-17T07:11:13.816Z,31.17
2019-03-17T07:13:48.755Z,30.80
2019-03-17T07:16:23.503Z,30.33
2019-03-17T07:19:00.884Z,30.57
2019-03-17T07:21:35.635Z,30.77
2019-03-17T07:24:10.408Z,31.30
2019-03-17T07:26:45.555Z,30.67
2019-03-17T07:29:21.011Z,30.83
2019-03-17T07:31:55.764Z,31.03
2019-03-17T07:34:30.543Z,31.13
2019-03-17T07:37:05.595Z,30.43
2019-03-17T07:39:40.343Z,31.23
2019-03-17T07:42:15.111Z,31.53
2019-03-17T07:44:49.943Z,33.47
2019-03-17T07:47:24.732Z,33.23
2019-03-17T07:49:59.489Z,32.97
2019-03-17T07:52:34.271Z,31.20
2019-03-17T07:55:09.566Z,31.43
2019-03-17T07:57:44.331Z,32.30
2019-03-17T08:00:30.882Z,31.43
2019-03-17T08:02:55.782Z,31.40
2019-03-17T08:05:30.671Z,31.33
2019-03-17T08:08:09.717Z,31.77
2019-03-17T08:10:42.193Z,32.60
2019-03-17T08:13:16.969Z,32.73
2019-03-17T08:15:52.102Z,32.60
2019-03-17T08:18:26.967Z,32.73
2019-03-17T08:21:01.906Z,32.80
2019-03-17T08:23:36.670Z,32.93
2019-03-17T08:26:11.528Z,33.07
2019-03-17T08:28:46.359Z,31.73
2019-03-17T08:31:21.219Z,31.60
2019-03-17T08:33:55.987Z,31.37
2019-03-17T08:36:30.829Z,31.67
2019-03-17T08:39:07.839Z,31.23
2019-03-17T08:41:42.615Z,31.53
2019-03-17T08:44:17.458Z,31.87
2019-03-17T08:46:52.214Z,31.20
2019-03-17T08:49:27.140Z,31.50
2019-03-17T08:52:01.992Z,31.40
2019-03-17T08:54:37.188Z,34.90
2019-03-17T08:57:12.382Z,34.77
2019-03-17T08:59:55.047Z,32.33
2019-03-17T09:02:44.469Z,33.75
2019-03-17T09:05:21.142Z,32.47
2019-03-17T09:08:02.674Z,30.73
2019-03-17T09:10:49.931Z,32.93
2019-03-17T09:13:30.378Z,31.93
2019-03-17T09:16:05.371Z,31.33
2019-03-17T09:21:42.998Z,31.68
2019-03-17T09:24:22.924Z,31.12
2019-03-17T09:30:01.788Z,32.27
2019-03-17T09:32:43.033Z,31.53
2019-03-17T09:35:40.244Z,32.50
2019-03-17T09:38:20.041Z,31.57
2019-03-17T09:40:55.228Z,32.23
2019-03-17T09:43:32.253Z,31.80
2019-03-17T09:46:27.548Z,32.53
2019-03-17T09:49:25.511Z,31.97
2019-03-17T09:52:02.490Z,31.65
2019-03-17T09:54:37.389Z,31.70
2019-03-17T09:57:12.215Z,31.63
2019-03-17T09:59:49.144Z,31.90
2019-03-17T10:02:26.003Z,31.20
2019-03-17T10:05:02.559Z,32.23
2019-03-17T10:10:38.432Z,31.83
2019-03-17T10:13:18.303Z,31.68
2019-03-17T10:15:53.585Z,32.03
2019-03-17T10:18:34.861Z,33.73
2019-03-17T10:21:09.917Z,35.07
2019-03-17T10:23:46.228Z,35.97
2019-03-17T10:26:44.381Z,34.43
2019-03-17T10:33:38.572Z,32.63
2019-03-17T10:36:14.490Z,33.50
2019-03-17T10:38:49.473Z,32.10
2019-03-17T10:41:24.573Z,33.67
2019-03-17T10:43:59.396Z,32.25
2019-03-17T10:46:51.047Z,31.60
2019-03-17T10:49:25.868Z,31.95
2019-03-17T10:52:00.635Z,32.17
2019-03-17T10:54:35.495Z,32.80
2019-03-17T10:57:10.341Z,32.77
2019-03-17T10:59:45.175Z,32.40
2019-03-17T11:02:20.088Z,32.95
2019-03-17T11:04:54.876Z,32.90
2019-03-17T11:07:29.648Z,32.87
2019-03-17T11:10:04.759Z,32.75
2019-03-17T11:12:39.590Z,33.25
2019-03-17T11:15:14.746Z,31.60
2019-03-17T11:17:51.236Z,33.73
2019-03-17T11:20:26.235Z,32.10
2019-03-17T11:23:01.161Z,32.33
2019-03-17T11:25:36.067Z,32.55
2019-03-17T11:28:10.830Z,32.63
2019-03-17T11:31:00.079Z,32.63
2019-03-17T11:33:34.931Z,33.17
2019-03-17T11:36:09.778Z,33.05
2019-03-17T11:38:44.767Z,32.17
2019-03-17T11:41:19.535Z,32.03
2019-03-17T11:43:54.320Z,32.30
2019-03-17T11:46:33.760Z,31.73
2019-03-17T11:49:08.942Z,31.73
2019-03-17T11:51:43.762Z,32.00
2019-03-17T11:54:18.696Z,32.23
2019-03-17T11:56:53.596Z,31.73
2019-03-17T11:59:28.605Z,31.68
2019-03-17T12:02:03.423Z,34.03
2019-03-17T12:07:35.674Z,33.63
2019-03-17T12:10:12.887Z,34.03
2019-03-17T12:12:49.640Z,32.35
2019-03-17T12:15:30.255Z,33.83
2019-03-17T12:18:13.409Z,32.30
2019-03-17T12:20:49.655Z,32.03
2019-03-17T12:23:32.268Z,33.33
2019-03-17T12:29:17.979Z,32.00
2019-03-17T12:31:58.284Z,33.23
2019-03-17T12:34:41.028Z,33.53
2019-03-17T12:37:18.074Z,31.65
2019-03-17T12:40:02.178Z,35.27
2019-03-17T12:42:50.011Z,32.53
2019-03-17T12:45:27.773Z,32.33
2019-03-17T12:48:02.748Z,31.90
2019-03-17T12:50:37.695Z,30.20
2019-03-17T12:53:12.667Z,32.03
2019-03-17T12:55:47.802Z,32.07
2019-03-17T12:58:25.157Z,31.40
2019-03-17T13:01:00.300Z,32.47
2019-03-17T13:03:35.293Z,33.20
2019-03-17T13:06:10.272Z,31.60
2019-03-17T13:08:46.610Z,31.87
2019-03-17T13:11:22.931Z,30.80
2019-03-17T13:14:00.112Z,30.37
2019-03-17T13:16:37.855Z,30.40
2019-03-17T13:19:18.200Z,30.97
2019-03-17T13:21:53.516Z,30.40
2019-03-17T13:24:30.231Z,31.23
2019-03-17T13:27:09.880Z,30.53
2019-03-17T13:29:44.365Z,31.03
2019-03-17T13:32:22.083Z,30.47
2019-03-17T13:34:57.064Z,30.93
2019-03-17T13:37:32.453Z,31.20
2019-03-17T13:40:11.725Z,30.27
2019-03-17T13:42:57.086Z,30.47
2019-03-17T13:45:38.073Z,29.60
2019-03-17T13:48:13.478Z,29.77
2019-03-17T13:50:50.583Z,29.83
2019-03-17T13:53:26.073Z,30.90
2019-03-17T13:56:01.521Z,30.17
2019-03-17T13:58:36.290Z,29.13
2019-03-17T14:01:11.113Z,30.17
2019-03-17T14:03:49.419Z,30.00
2019-03-17T14:06:24.360Z,29.40
2019-03-17T14:08:59.264Z,29.37
2019-03-17T14:11:34.165Z,29.10
2019-03-17T14:14:09.826Z,29.10
2019-03-17T14:16:44.753Z,29.60
2019-03-17T14:19:19.595Z,29.07
2019-03-17T14:21:54.379Z,29.43
2019-03-17T14:24:29.232Z,29.23
2019-03-17T14:27:04.245Z,29.63
2019-03-17T14:29:39.089Z,29.47
2019-03-17T14:32:13.948Z,29.33
2019-03-17T14:34:48.735Z,29.07
2019-03-17T14:37:23.564Z,29.17
2019-03-17T14:39:58.362Z,28.63
2019-03-17T14:42:33.224Z,28.67
2019-03-17T14:45:08.555Z,29.10
2019-03-17T14:47:43.504Z,28.57
2019-03-17T14:50:18.596Z,29.10
2019-03-17T14:52:53.519Z,29.10
2019-03-17T14:55:28.672Z,29.20
2019-03-17T14:58:03.811Z,29.37
2019-03-17T15:00:38.712Z,29.87
2019-03-17T15:03:13.652Z,31.67
2019-03-17T15:05:48.395Z,29.03
2019-03-17T15:08:23.301Z,28.63
2019-03-17T15:11:05.777Z,29.10
2019-03-17T15:13:34.620Z,28.63
2019-03-17T15:16:15.572Z,29.00
2019-03-17T15:18:50.415Z,29.20
2019-03-17T15:21:25.368Z,29.53
2019-03-17T15:24:00.288Z,28.97
2019-03-17T15:26:37.788Z,30.27
2019-03-17T15:29:12.912Z,40.70
2019-03-17T15:31:50.628Z,31.17
2019-03-17T15:34:28.783Z,31.10
2019-03-17T15:37:05.196Z,29.37
2019-03-17T15:39:42.374Z,29.17
2019-03-17T15:42:19.494Z,29.70
2019-03-17T15:44:55.622Z,28.90
2019-03-17T15:47:30.487Z,29.90
2019-03-17T15:50:06.851Z,30.37
2019-03-17T15:52:41.775Z,30.57
2019-03-17T15:55:16.779Z,33.40
2019-03-17T15:57:51.932Z,31.70
2019-03-17T16:00:27.284Z,30.37
2019-03-17T16:03:02.348Z,31.23
2019-03-17T16:05:37.199Z,29.70
2019-03-17T16:08:12.127Z,29.53
2019-03-17T16:10:46.920Z,28.87
2019-03-17T16:13:22.939Z,29.67
2019-03-17T16:15:57.791Z,29.57
2019-03-17T16:18:33.719Z,29.63
2019-03-17T16:21:09.092Z,30.47
2019-03-17T16:23:44.173Z,30.10
2019-03-17T16:26:19.005Z,29.73
2019-03-17T16:28:53.871Z,29.50
2019-03-17T16:31:28.803Z,30.63
2019-03-17T16:34:04.939Z,29.73
2019-03-17T16:36:39.857Z,29.50
2019-03-17T16:39:14.630Z,30.20
2019-03-17T16:41:49.384Z,29.50
2019-03-17T16:44:24.306Z,29.33
2019-03-17T16:47:00.772Z,29.57
2019-03-17T16:49:35.913Z,29.80
2019-03-17T16:52:10.844Z,29.50
2019-03-17T16:54:45.723Z,29.47
2019-03-17T16:57:22.597Z,28.90
2019-03-17T16:59:57.408Z,30.60
2019-03-17T17:02:32.247Z,28.80
2019-03-17T17:05:07.620Z,29.10
2019-03-17T17:07:43.431Z,29.07
2019-03-17T17:10:18.826Z,28.50
2019-03-17T17:12:53.722Z,28.73
2019-03-17T17:15:28.690Z,28.93
2019-03-17T17:18:03.687Z,29.23
2019-03-17T17:20:39.731Z,29.23
2019-03-17T17:23:14.604Z,29.20
2019-03-17T17:25:49.554Z,29.10
2019-03-17T17:28:24.504Z,28.90
2019-03-17T17:30:59.423Z,29.60
2019-03-17T17:33:34.188Z,29.33
2019-03-17T17:36:08.935Z,29.07
2019-03-17T17:38:43.768Z,28.67
2019-03-17T17:41:18.539Z,28.57
2019-03-17T17:43:53.324Z,29.97
2019-03-17T17:46:28.155Z,28.70
2019-03-17T17:49:03.159Z,29.03
2019-03-17T17:51:38.983Z,30.13
2019-03-17T17:54:13.733Z,29.57
2019-03-17T17:56:48.646Z,29.27
2019-03-17T17:59:23.491Z,30.07
2019-03-17T18:01:59.345Z,29.20
2019-03-17T18:04:34.124Z,29.70
2019-03-17T18:07:08.911Z,29.47
2019-03-17T18:09:43.656Z,29.13
2019-03-17T18:12:21.289Z,29.50
2019-03-17T18:14:54.982Z,28.83
2019-03-17T18:17:30.746Z,28.93
2019-03-17T18:20:06.662Z,29.27
2019-03-17T18:22:41.680Z,29.87
2019-03-17T18:25:16.648Z,29.27
2019-03-17T18:27:51.500Z,29.93
2019-03-17T18:30:26.333Z,29.17
2019-03-17T18:33:01.325Z,30.00
2019-03-17T18:35:37.164Z,30.13
2019-03-17T18:38:12.089Z,29.67
2019-03-17T18:40:46.905Z,29.43
2019-03-17T18:43:21.959Z,29.23
2019-03-17T18:45:58.791Z,29.70
2019-03-17T18:48:39.469Z,30.10
2019-03-17T18:51:14.340Z,30.43
2019-03-17T18:53:49.196Z,30.50
2019-03-17T18:56:24.040Z,30.10
2019-03-17T18:58:59.056Z,29.87
2019-03-17T19:01:34.423Z,31.40
2019-03-17T19:04:09.173Z,30.40
2019-03-17T19:06:43.947Z,29.67
2019-03-17T19:09:18.752Z,30.30
2019-03-17T19:11:53.523Z,34.13
2019-03-17T19:14:28.338Z,33.80
2019-03-17T19:17:03.327Z,30.53
2019-03-17T19:19:39.124Z,30.80
2019-03-17T19:22:14.031Z,31.43
2019-03-17T19:24:48.857Z,30.97
2019-03-17T19:27:23.847Z,31.23
2019-03-17T19:29:58.623Z,29.53
2019-03-17T19:32:33.470Z,31.63
2019-03-17T19:35:09.368Z,30.67
2019-03-17T19:37:44.366Z,29.33
2019-03-17T19:40:19.296Z,29.80
2019-03-17T19:42:59.151Z,29.63
2019-03-17T19:45:30.984Z,29.80
2019-03-17T19:48:05.821Z,28.97
2019-03-17T19:50:43.900Z,29.77
2019-03-17T19:53:18.727Z,31.03
2019-03-17T19:55:53.612Z,30.97
2019-03-17T19:58:30.739Z,30.73
2019-03-17T20:01:05.921Z,30.93
2019-03-17T20:03:40.761Z,29.83
2019-03-17T20:06:15.571Z,29.90
2019-03-17T20:08:50.331Z,29.27
2019-03-17T20:11:25.821Z,29.67
2019-03-17T20:14:01.016Z,29.10
2019-03-17T20:16:43.596Z,29.13
2019-03-17T20:19:18.444Z,28.80
2019-03-17T20:21:53.311Z,29.27
2019-03-17T20:24:28.072Z,28.93
2019-03-17T20:27:04.421Z,29.33
2019-03-17T20:29:39.191Z,29.33
2019-03-17T20:32:13.948Z,28.93
2019-03-17T20:34:48.887Z,29.47
2019-03-17T20:37:23.663Z,28.80
2019-03-17T20:39:58.477Z,28.60
2019-03-17T20:42:33.248Z,28.93
2019-03-17T20:45:08.692Z,28.40
2019-03-17T20:47:43.665Z,28.67
2019-03-17T20:50:18.588Z,28.60
2019-03-17T20:52:53.634Z,29.03
2019-03-17T20:55:28.403Z,28.93
2019-03-17T20:58:03.245Z,29.07
2019-03-17T21:00:38.096Z,30.50
2019-03-17T21:03:12.931Z,31.37
2019-03-17T21:05:48.984Z,29.30
2019-03-17T21:08:23.758Z,28.67
2019-03-17T21:10:58.759Z,28.73
2019-03-17T21:13:45.911Z,29.07
2019-03-17T21:16:10.076Z,28.93
2019-03-17T21:18:44.843Z,28.77
2019-03-17T21:21:19.664Z,28.67
2019-03-17T21:23:54.524Z,29.33
2019-03-17T21:26:29.373Z,29.00
2019-03-17T21:29:04.249Z,28.63
2019-03-17T21:31:39.030Z,28.97
2019-03-17T21:34:13.791Z,29.47
2019-03-17T21:36:48.621Z,28.53
2019-03-17T21:39:23.480Z,28.07
2019-03-17T21:41:58.298Z,28.07
2019-03-17T21:44:33.079Z,27.97
2019-03-17T21:47:08.895Z,28.57
2019-03-17T21:49:43.668Z,28.13
2019-03-17T21:52:18.430Z,28.23
2019-03-17T21:54:53.196Z,27.83
2019-03-17T21:57:27.944Z,28.10
2019-03-17T22:00:02.884Z,28.70
2019-03-17T22:02:37.618Z,28.50
2019-03-17T22:05:12.703Z,28.60
2019-03-17T22:07:50.666Z,28.37
2019-03-17T22:10:24.096Z,28.50
2019-03-17T22:12:59.012Z,28.40
2019-03-17T22:15:33.855Z,27.93
2019-03-17T22:18:08.764Z,28.43
2019-03-17T22:20:43.671Z,28.97
2019-03-17T22:23:18.427Z,28.27
2019-03-17T22:25:53.554Z,28.33
2019-03-17T22:28:28.332Z,28.87
2019-03-17T22:31:03.195Z,29.10
2019-03-17T22:33:37.944Z,28.10
2019-03-17T22:36:12.704Z,28.80
2019-03-17T22:38:47.456Z,27.93
2019-03-17T22:41:23.299Z,28.10
2019-03-17T22:43:58.089Z,28.40
2019-03-17T22:46:32.926Z,28.00
2019-03-17T22:49:07.868Z,28.47
2019-03-17T22:51:42.703Z,29.00
2019-03-17T22:54:17.551Z,28.47
2019-03-17T22:56:52.391Z,28.20
2019-03-17T22:59:28.131Z,28.30
2019-03-17T23:02:03.048Z,28.70
2019-03-17T23:04:37.825Z,28.17
2019-03-17T23:07:12.742Z,28.03
2019-03-17T23:09:47.746Z,28.00
2019-03-17T23:12:22.581Z,28.47
2019-03-17T23:14:57.363Z,27.73
2019-03-17T23:17:32.179Z,28.10
2019-03-17T23:20:07.895Z,27.80
2019-03-17T23:22:42.723Z,28.33
2019-03-17T23:25:17.569Z,28.37
2019-03-17T23:27:52.405Z,28.43
2019-03-17T23:30:27.372Z,29.33
2019-03-17T23:33:02.175Z,29.10
2019-03-17T23:35:37.015Z,28.07
2019-03-17T23:38:11.840Z,28.40
2019-03-17T23:40:46.760Z,27.73
2019-03-17T23:43:21.606Z,27.90
2019-03-17T23:45:56.474Z,27.73
2019-03-17T23:48:31.300Z,27.60
2019-03-17T23:51:06.340Z,28.27
2019-03-17T23:53:41.175Z,28.00
2019-03-17T23:56:15.936Z,28.30
2019-03-17T23:58:50.701Z,28.30
